createdAt,value
2019-04-25T00:02:16.607Z,11.90
2019-04-25T00:04:45.614Z,11.90
2019-04-25T00:07:14.575Z,12.07
2019-04-25T00:09:53.696Z,11.50
2019-04-25T00:12:23.145Z,11.53
2019-04-25T00:14:52.259Z,12.07
2019-04-25T00:17:21.799Z,11.60
2019-04-25T00:19:51.063Z,13.13
2019-04-25T00:22:42.559Z,12.17
2019-04-25T00:25:31.414Z,13.00
2019-04-25T00:28:01.800Z,11.73
2019-04-25T00:30:32.362Z,12.90
2019-04-25T00:33:02.031Z,12.30
2019-04-25T00:35:31.550Z,12.13
2019-04-25T00:38:02.248Z,14.13
2019-04-25T00:40:31.889Z,13.13
2019-04-25T00:43:01.576Z,12.53
2019-04-25T00:45:31.736Z,13.33
2019-04-25T00:48:04.001Z,13.30
2019-04-25T00:50:31.983Z,13.40
2019-04-25T00:53:01.272Z,13.63
2019-04-25T00:55:31.433Z,13.53
2019-04-25T00:58:06.715Z,13.90
2019-04-25T01:01:12.649Z,13.80
2019-04-25T01:03:43.271Z,12.93
2019-04-25T01:06:12.552Z,13.17
2019-04-25T01:08:41.567Z,13.70
2019-04-25T01:11:11.509Z,17.67
2019-04-25T01:13:42.175Z,15.07
2019-04-25T01:16:11.993Z,15.37
2019-04-25T01:18:41.057Z,14.47
2019-04-25T01:21:10.015Z,15.10
2019-04-25T01:23:39.024Z,15.40
2019-04-25T01:26:08.178Z,15.50
2019-04-25T01:28:37.197Z,14.20
2019-04-25T01:31:07.823Z,14.37
2019-04-25T01:33:36.848Z,15.87
2019-04-25T01:36:27.903Z,13.73
2019-04-25T01:39:05.395Z,13.53
2019-04-25T01:41:41.652Z,14.20
2019-04-25T01:44:24.134Z,14.30
2019-04-25T01:46:54.484Z,14.60
2019-04-25T01:49:23.995Z,13.83
2019-04-25T01:51:54.451Z,14.27
2019-04-25T01:54:23.856Z,14.93
2019-04-25T01:56:53.587Z,13.50
2019-04-25T01:59:23.793Z,14.23
2019-04-25T02:01:56.721Z,13.03
2019-04-25T02:04:25.751Z,13.67
2019-04-25T02:06:55.624Z,14.53
2019-04-25T02:09:25.553Z,14.43
2019-04-25T02:12:06.507Z,14.97
2019-04-25T02:14:35.706Z,14.87
2019-04-25T02:17:04.815Z,15.03
2019-04-25T02:19:35.562Z,13.50
2019-04-25T02:22:04.502Z,13.40
2019-04-25T02:24:33.955Z,13.03
2019-04-25T02:27:04.558Z,12.87
2019-04-25T02:29:33.680Z,14.63
2019-04-25T02:32:08.856Z,13.57
2019-04-25T02:34:34.836Z,12.87
2019-04-25T02:37:08.662Z,14.13
2019-04-25T02:39:37.257Z,13.80
2019-04-25T02:42:08.133Z,15.27
2019-04-25T02:44:38.245Z,13.37
2019-04-25T02:47:35.369Z,12.43
2019-04-25T02:50:34.389Z,13.13
2019-04-25T02:53:30.829Z,14.33
2019-04-25T02:55:59.859Z,12.77
2019-04-25T02:58:28.908Z,13.77
2019-04-25T03:01:08.256Z,13.23
2019-04-25T03:03:29.343Z,12.53
2019-04-25T03:05:59.666Z,12.27
2019-04-25T03:08:29.087Z,15.23
2019-04-25T03:10:58.822Z,13.27
2019-04-25T03:13:28.747Z,14.03
2019-04-25T03:15:58.691Z,14.37
2019-04-25T03:18:30.000Z,14.30
2019-04-25T03:21:13.473Z,14.60
2019-04-25T03:23:42.803Z,16.87
2019-04-25T03:26:13.543Z,14.40
2019-04-25T03:28:43.860Z,14.20
2019-04-25T03:31:18.737Z,14.90
2019-04-25T03:33:45.956Z,14.27
2019-04-25T03:36:16.835Z,18.57
2019-04-25T03:38:44.838Z,14.70
2019-04-25T03:41:14.760Z,15.70
2019-04-25T03:43:44.208Z,14.87
2019-04-25T03:46:14.246Z,15.37
2019-04-25T03:48:44.116Z,16.07
2019-04-25T03:51:15.389Z,15.27
2019-04-25T03:53:43.959Z,15.23
2019-04-25T03:56:14.483Z,15.67
2019-04-25T03:58:44.001Z,15.97
2019-04-25T04:01:14.975Z,15.43
2019-04-25T04:03:44.054Z,20.13
2019-04-25T04:06:15.237Z,21.80
2019-04-25T04:08:44.280Z,17.50
2019-04-25T04:11:14.608Z,19.97
2019-04-25T04:13:44.163Z,15.90
2019-04-25T04:16:14.677Z,17.33
2019-04-25T04:18:46.066Z,17.67
2019-04-25T04:21:37.145Z,18.23
2019-04-25T04:24:16.086Z,18.90
2019-04-25T04:27:06.640Z,17.83
2019-04-25T04:29:34.762Z,17.93
2019-04-25T04:32:03.752Z,18.27
2019-04-25T04:34:33.759Z,17.63
2019-04-25T04:37:03.716Z,18.27
2019-04-25T04:39:33.872Z,17.43
2019-04-25T04:42:03.807Z,17.47
2019-04-25T04:44:34.326Z,16.77
2019-04-25T04:47:04.017Z,17.77
2019-04-25T04:49:34.113Z,17.50
2019-04-25T04:52:06.146Z,19.97
2019-04-25T04:54:34.453Z,16.83
2019-04-25T04:57:16.873Z,29.83
2019-04-25T04:59:34.160Z,31.63
2019-04-25T05:02:20.390Z,18.77
2019-04-25T05:05:14.804Z,17.43
2019-04-25T05:07:48.060Z,15.57
2019-04-25T05:10:18.666Z,16.40
2019-04-25T05:12:47.828Z,20.03
2019-04-25T05:15:17.919Z,17.80
2019-04-25T05:17:47.406Z,15.97
2019-04-25T05:20:17.605Z,38.73
2019-04-25T05:22:47.068Z,18.87
2019-04-25T05:25:17.478Z,14.80
2019-04-25T05:27:59.578Z,13.83
2019-04-25T05:30:23.965Z,13.20
2019-04-25T05:32:54.243Z,12.93
2019-04-25T05:35:24.348Z,12.83
2019-04-25T05:37:54.234Z,13.13
2019-04-25T05:40:24.430Z,18.93
2019-04-25T05:43:09.559Z,12.70
2019-04-25T05:45:38.523Z,15.07
2019-04-25T05:48:07.614Z,14.40
2019-04-25T05:50:36.594Z,14.10
2019-04-25T05:53:05.608Z,13.43
2019-04-25T05:55:34.561Z,14.07
2019-04-25T05:58:03.971Z,13.90
2019-04-25T06:00:34.006Z,13.70
2019-04-25T06:03:03.696Z,16.33
2019-04-25T06:05:33.514Z,14.70
2019-04-25T06:08:04.348Z,14.80
2019-04-25T06:10:53.832Z,21.37
2019-04-25T06:13:40.185Z,14.17
2019-04-25T06:16:14.149Z,17.17
2019-04-25T06:19:14.285Z,14.00
2019-04-25T06:21:39.095Z,12.37
2019-04-25T06:24:24.339Z,16.33
2019-04-25T06:27:15.369Z,13.40
2019-04-25T06:29:57.591Z,13.00
2019-04-25T06:32:16.790Z,12.70
2019-04-25T06:34:45.891Z,11.40
2019-04-25T06:37:14.862Z,12.30
2019-04-25T06:39:47.047Z,12.87
2019-04-25T06:42:16.114Z,10.93
2019-04-25T06:45:06.155Z,13.73
2019-04-25T06:47:53.991Z,14.37
2019-04-25T06:50:24.536Z,11.97
2019-04-25T06:52:53.765Z,11.67
2019-04-25T06:55:23.664Z,10.30
2019-04-25T06:57:54.014Z,12.10
2019-04-25T07:00:26.260Z,10.67
2019-04-25T07:02:53.821Z,11.93
2019-04-25T07:05:30.557Z,11.63
2019-04-25T07:07:53.699Z,11.03
2019-04-25T07:10:24.164Z,10.70
2019-04-25T07:12:54.383Z,11.13
2019-04-25T07:15:25.636Z,10.67
2019-04-25T07:17:54.406Z,11.90
2019-04-25T07:20:26.109Z,10.13
2019-04-25T07:22:54.147Z,13.03
2019-04-25T07:25:26.315Z,11.87
2019-04-25T07:28:28.403Z,11.17
2019-04-25T07:31:13.338Z,10.87
2019-04-25T07:33:47.582Z,12.20
2019-04-25T07:36:16.603Z,9.83
2019-04-25T07:38:45.634Z,12.00
2019-04-25T07:41:16.229Z,12.33
2019-04-25T07:43:45.449Z,13.60
2019-04-25T07:46:14.520Z,33.13
2019-04-25T07:48:43.916Z,11.53
2019-04-25T07:51:16.170Z,16.23
2019-04-25T07:53:43.718Z,9.30
2019-04-25T07:56:14.223Z,9.87
2019-04-25T07:58:50.506Z,11.17
2019-04-25T08:01:15.230Z,11.67
2019-04-25T08:03:44.579Z,14.70
2019-04-25T08:06:13.928Z,13.87
2019-04-25T08:08:43.639Z,14.57
2019-04-25T08:11:14.069Z,13.83
2019-04-25T08:13:51.154Z,13.93
2019-04-25T08:16:21.311Z,15.97
2019-04-25T08:18:50.818Z,13.73
2019-04-25T08:21:19.795Z,15.33
2019-04-25T08:23:49.566Z,12.80
2019-04-25T08:26:18.623Z,13.90
2019-04-25T08:28:55.037Z,12.00
2019-04-25T08:31:18.411Z,11.30
2019-04-25T08:33:47.503Z,9.73
2019-04-25T08:36:16.503Z,10.87
2019-04-25T08:38:45.467Z,10.60
2019-04-25T08:41:14.506Z,12.27
2019-04-25T08:43:45.367Z,9.87
2019-04-25T08:46:14.147Z,10.50
2019-04-25T08:49:06.446Z,8.67
2019-04-25T08:51:37.855Z,12.23
2019-04-25T08:54:13.771Z,14.07
2019-04-25T08:56:43.969Z,7.90
2019-04-25T08:59:36.213Z,13.47
2019-04-25T09:02:10.870Z,13.40
2019-04-25T09:04:58.959Z,8.30
2019-04-25T09:07:27.911Z,12.07
2019-04-25T09:09:56.915Z,7.83
2019-04-25T09:12:25.879Z,7.77
2019-04-25T09:14:54.871Z,8.37
2019-04-25T09:17:24.293Z,10.67
2019-04-25T09:19:54.240Z,11.43
2019-04-25T09:22:24.236Z,8.17
2019-04-25T09:24:54.029Z,9.63
2019-04-25T09:27:23.507Z,8.73
2019-04-25T09:29:54.134Z,9.50
2019-04-25T09:32:23.887Z,8.43
2019-04-25T09:34:54.447Z,8.53
2019-04-25T09:37:24.596Z,13.40
2019-04-25T09:40:04.323Z,9.13
2019-04-25T09:42:33.812Z,10.20
2019-04-25T09:45:28.874Z,9.13
2019-04-25T09:48:00.764Z,9.77
2019-04-25T09:50:49.663Z,8.60
2019-04-25T09:53:23.601Z,7.20
2019-04-25T09:56:04.171Z,9.23
2019-04-25T09:58:40.073Z,7.73
2019-04-25T10:01:11.491Z,13.30
2019-04-25T10:03:40.937Z,10.30
2019-04-25T10:06:09.962Z,8.97
2019-04-25T10:08:39.019Z,10.23
2019-04-25T10:11:08.100Z,11.87
2019-04-25T10:13:37.574Z,8.73
2019-04-25T10:16:09.666Z,10.37
2019-04-25T10:18:39.266Z,9.33
2019-04-25T10:21:11.216Z,11.90
2019-04-25T10:23:41.719Z,11.93
2019-04-25T10:26:12.225Z,10.93
2019-04-25T10:28:41.785Z,17.83
2019-04-25T10:31:13.668Z,14.17
2019-04-25T10:33:45.300Z,10.80
2019-04-25T10:36:14.447Z,10.53
2019-04-25T10:38:46.304Z,10.57
2019-04-25T10:41:14.506Z,12.20
2019-04-25T10:43:44.022Z,13.67
2019-04-25T10:46:14.153Z,13.80
2019-04-25T10:48:43.980Z,11.00
2019-04-25T10:51:13.847Z,11.50
2019-04-25T10:53:45.449Z,12.80
2019-04-25T10:56:14.210Z,8.87
2019-04-25T10:58:44.425Z,16.60
2019-04-25T11:01:15.325Z,13.97
2019-04-25T11:04:04.730Z,9.50
2019-04-25T11:06:34.488Z,12.00
2019-04-25T11:09:03.576Z,8.33
2019-04-25T11:11:34.227Z,8.43
2019-04-25T11:14:03.401Z,7.10
2019-04-25T11:16:33.374Z,9.20
2019-04-25T11:19:02.466Z,11.03
2019-04-25T11:21:33.218Z,6.97
2019-04-25T11:24:02.090Z,8.43
2019-04-25T11:26:31.245Z,7.00
2019-04-25T11:29:00.316Z,12.33
2019-04-25T11:31:33.979Z,33.70
2019-04-25T11:34:03.595Z,10.90
2019-04-25T11:36:33.896Z,7.03
2019-04-25T11:39:34.182Z,7.20
2019-04-25T11:42:04.431Z,5.77
2019-04-25T11:44:34.970Z,8.67
2019-04-25T11:47:06.917Z,8.70
2019-04-25T11:49:34.930Z,9.00
2019-04-25T11:52:05.272Z,8.73
2019-04-25T11:54:34.482Z,5.27
2019-04-25T11:57:03.699Z,7.10
2019-04-25T11:59:34.122Z,7.70
2019-04-25T12:02:13.464Z,5.93
2019-04-25T12:04:45.221Z,7.73
2019-04-25T12:07:14.317Z,5.40
2019-04-25T12:09:45.794Z,6.07
2019-04-25T12:12:14.619Z,5.40
2019-04-25T12:14:45.078Z,7.40
2019-04-25T12:17:14.460Z,5.90
2019-04-25T12:19:43.471Z,6.87
2019-04-25T12:22:13.581Z,11.27
2019-04-25T12:24:44.497Z,7.53
2019-04-25T12:27:13.747Z,8.60
2019-04-25T12:29:44.008Z,6.20
2019-04-25T12:32:14.170Z,4.97
2019-04-25T12:34:43.465Z,5.50
2019-04-25T12:37:12.551Z,8.97
2019-04-25T12:39:41.569Z,11.70
2019-04-25T12:42:10.595Z,5.57
2019-04-25T12:45:07.294Z,6.03
2019-04-25T12:47:38.931Z,6.07
2019-04-25T12:50:08.138Z,9.57
2019-04-25T12:52:37.148Z,5.47
2019-04-25T12:55:08.819Z,7.07
2019-04-25T12:57:37.775Z,6.53
2019-04-25T13:00:06.980Z,10.00
2019-04-25T13:02:36.632Z,8.17
2019-04-25T13:05:06.980Z,5.57
2019-04-25T13:07:36.220Z,15.43
2019-04-25T13:10:05.819Z,7.57
2019-04-25T13:12:34.860Z,7.87
2019-04-25T13:15:03.920Z,5.13
2019-04-25T13:17:33.910Z,10.53
2019-04-25T13:20:04.084Z,10.50
2019-04-25T13:22:34.803Z,8.13
2019-04-25T13:25:05.678Z,8.03
2019-04-25T13:27:53.824Z,7.23
2019-04-25T13:31:01.386Z,8.30
2019-04-25T13:33:39.881Z,7.57
2019-04-25T13:36:11.480Z,8.83
2019-04-25T13:38:40.547Z,10.63
2019-04-25T13:41:09.550Z,9.47
2019-04-25T13:43:38.586Z,9.27
2019-04-25T13:46:07.534Z,5.43
2019-04-25T13:48:36.603Z,8.30
2019-04-25T13:51:05.601Z,9.17
2019-04-25T13:53:34.561Z,12.47
2019-04-25T13:56:04.889Z,9.30
2019-04-25T13:58:34.333Z,11.70
2019-04-25T14:01:12.965Z,12.97
2019-04-25T14:03:35.650Z,6.77
2019-04-25T14:06:04.851Z,9.13
2019-04-25T14:08:34.248Z,7.50
2019-04-25T14:11:04.960Z,9.47
2019-04-25T14:13:33.919Z,6.50
2019-04-25T14:16:13.775Z,8.00
2019-04-25T14:19:02.760Z,6.33
2019-04-25T14:21:33.424Z,15.80
2019-04-25T14:24:02.576Z,13.30
2019-04-25T14:26:31.695Z,9.43
2019-04-25T14:29:00.729Z,11.93
2019-04-25T14:31:41.260Z,12.60
2019-04-25T14:34:00.311Z,16.90
2019-04-25T14:36:30.236Z,9.57
2019-04-25T14:38:59.311Z,12.63
2019-04-25T14:41:28.265Z,7.77
2019-04-25T14:43:57.527Z,9.80
2019-04-25T14:46:26.614Z,9.33
2019-04-25T14:48:55.591Z,8.47
2019-04-25T14:51:24.531Z,8.90
2019-04-25T14:53:53.675Z,6.90
2019-04-25T14:56:30.379Z,13.90
2019-04-25T14:58:59.328Z,7.07
2019-04-25T15:01:28.378Z,12.97
2019-04-25T15:03:57.470Z,6.60
2019-04-25T15:06:27.589Z,7.53
2019-04-25T15:08:56.667Z,10.63
2019-04-25T15:11:25.628Z,10.57
2019-04-25T15:13:54.629Z,10.03
2019-04-25T15:16:24.649Z,6.37
2019-04-25T15:18:53.606Z,8.00
2019-04-25T15:21:22.553Z,11.27
2019-04-25T15:24:00.123Z,8.37
2019-04-25T15:26:22.136Z,9.00
2019-04-25T15:28:51.207Z,7.67
2019-04-25T15:31:20.204Z,7.37
2019-04-25T15:33:49.367Z,10.80
2019-04-25T15:36:49.431Z,8.57
2019-04-25T15:39:43.522Z,15.17
2019-04-25T15:42:40.647Z,8.13
2019-04-25T15:45:37.691Z,10.20
2019-04-25T15:48:07.551Z,10.70
2019-04-25T15:50:36.604Z,7.67
2019-04-25T15:53:05.694Z,8.50
2019-04-25T15:55:34.786Z,9.73
2019-04-25T15:58:04.057Z,10.87
2019-04-25T16:00:36.868Z,8.57
2019-04-25T16:03:06.515Z,9.80
2019-04-25T16:05:36.051Z,7.53
2019-04-25T16:08:06.098Z,10.47
2019-04-25T16:10:35.145Z,11.47
2019-04-25T16:13:04.240Z,10.87
2019-04-25T16:15:33.300Z,11.23
2019-04-25T16:18:02.416Z,10.83
2019-04-25T16:20:31.505Z,14.13
2019-04-25T16:23:00.475Z,8.03
2019-04-25T16:25:29.932Z,9.17
2019-04-25T16:27:58.970Z,13.93
2019-04-25T16:30:31.170Z,11.53
2019-04-25T16:33:00.269Z,14.90
2019-04-25T16:35:29.830Z,9.80
2019-04-25T16:37:58.828Z,9.73
2019-04-25T16:40:28.713Z,10.23
2019-04-25T16:42:58.996Z,9.90
2019-04-25T16:45:28.942Z,9.67
2019-04-25T16:47:58.919Z,11.60
2019-04-25T16:50:29.064Z,14.97
2019-04-25T16:52:59.039Z,10.03
2019-04-25T16:55:28.077Z,12.03
2019-04-25T16:57:57.063Z,8.10
2019-04-25T17:00:43.663Z,8.53
2019-04-25T17:03:14.067Z,12.47
2019-04-25T17:05:43.246Z,7.83
2019-04-25T17:08:12.351Z,8.57
2019-04-25T17:10:41.669Z,12.40
2019-04-25T17:13:10.791Z,10.20
2019-04-25T17:16:10.708Z,9.60
2019-04-25T17:19:04.395Z,11.83
2019-04-25T17:21:34.626Z,16.87
2019-04-25T17:24:04.274Z,11.57
2019-04-25T17:26:33.221Z,13.83
2019-04-25T17:29:04.865Z,8.73
2019-04-25T17:31:50.359Z,15.43
2019-04-25T17:34:32.524Z,13.57
2019-04-25T17:37:14.055Z,12.60
2019-04-25T17:39:44.807Z,11.80
2019-04-25T17:42:13.862Z,10.80
2019-04-25T17:44:42.875Z,11.77
2019-04-25T17:47:11.923Z,9.33
2019-04-25T17:49:40.867Z,13.40
2019-04-25T17:52:09.862Z,13.73
2019-04-25T17:54:38.951Z,11.20
2019-04-25T17:57:08.036Z,11.60
2019-04-25T17:59:37.018Z,12.80
2019-04-25T18:02:05.999Z,19.97
2019-04-25T18:04:35.396Z,10.00
2019-04-25T18:07:04.585Z,12.20
2019-04-25T18:09:34.445Z,14.57
2019-04-25T18:12:04.639Z,11.00
2019-04-25T18:14:34.062Z,14.00
2019-04-25T18:17:04.240Z,16.90
2019-04-25T18:19:57.961Z,16.50
2019-04-25T18:22:58.131Z,19.20
2019-04-25T18:25:41.951Z,21.07
2019-04-25T18:28:24.434Z,18.10
2019-04-25T18:30:53.735Z,19.77
2019-04-25T18:33:28.364Z,16.60
2019-04-25T18:36:16.936Z,11.43
2019-04-25T18:38:55.871Z,10.67
2019-04-25T18:41:38.610Z,12.07
2019-04-25T18:44:07.846Z,16.10
2019-04-25T18:46:39.198Z,15.53
2019-04-25T18:49:08.174Z,15.77
2019-04-25T18:51:37.280Z,16.27
2019-04-25T18:54:28.599Z,14.10
2019-04-25T18:57:19.381Z,12.63
2019-04-25T18:59:59.361Z,14.87
2019-04-25T19:02:46.080Z,15.20
2019-04-25T19:05:49.019Z,15.57
2019-04-25T19:08:18.096Z,18.70
2019-04-25T19:10:47.180Z,15.10
2019-04-25T19:13:16.180Z,13.27
2019-04-25T19:15:45.217Z,15.27
2019-04-25T19:18:14.304Z,12.93
2019-04-25T19:20:43.992Z,14.33
2019-04-25T19:23:13.013Z,18.07
2019-04-25T19:25:41.991Z,19.37
2019-04-25T19:28:10.995Z,17.37
2019-04-25T19:30:40.998Z,14.07
2019-04-25T19:33:10.119Z,15.43
2019-04-25T19:35:40.393Z,14.20
2019-04-25T19:38:09.832Z,15.93
2019-04-25T19:40:57.829Z,16.40
2019-04-25T19:43:30.942Z,15.00
2019-04-25T19:45:59.955Z,20.67
2019-04-25T19:48:29.591Z,18.77
2019-04-25T19:50:58.563Z,22.83
2019-04-25T19:53:27.527Z,14.27
2019-04-25T19:55:56.543Z,14.13
2019-04-25T19:58:25.531Z,12.77
2019-04-25T20:00:54.548Z,18.27
2019-04-25T20:03:49.191Z,20.10
2019-04-25T20:06:28.388Z,16.70
2019-04-25T20:09:02.628Z,18.87
2019-04-25T20:11:41.115Z,16.53
2019-04-25T20:14:10.147Z,13.43
2019-04-25T20:16:43.415Z,16.37
2019-04-25T20:19:13.005Z,15.37
2019-04-25T20:21:41.985Z,13.13
2019-04-25T20:24:10.977Z,12.90
2019-04-25T20:26:39.955Z,13.43
2019-04-25T20:29:08.973Z,12.37
2019-04-25T20:31:38.000Z,13.20
2019-04-25T20:34:06.967Z,13.83
2019-04-25T20:36:36.014Z,13.33
2019-04-25T20:39:06.542Z,16.30
2019-04-25T20:41:35.518Z,15.40
2019-04-25T20:44:04.630Z,16.57
2019-04-25T20:46:33.595Z,14.53
2019-04-25T20:49:02.635Z,16.53
2019-04-25T20:51:31.591Z,19.13
2019-04-25T20:54:00.610Z,16.37
2019-04-25T20:56:29.578Z,17.10
2019-04-25T20:58:58.546Z,15.13
2019-04-25T21:01:27.559Z,15.77
2019-04-25T21:03:56.515Z,16.23
2019-04-25T21:06:29.796Z,16.17
2019-04-25T21:08:58.819Z,15.23
2019-04-25T21:11:27.783Z,15.20
2019-04-25T21:14:14.486Z,13.73
2019-04-25T21:17:02.937Z,13.27
2019-04-25T21:19:34.162Z,12.63
2019-04-25T21:22:03.155Z,12.17
2019-04-25T21:24:32.202Z,10.90
2019-04-25T21:27:01.215Z,12.30
2019-04-25T21:29:30.190Z,10.27
2019-04-25T21:31:59.296Z,9.83
2019-04-25T21:34:30.386Z,8.87
2019-04-25T21:36:59.735Z,10.50
2019-04-25T21:39:38.513Z,8.63
2019-04-25T21:42:26.896Z,10.60
2019-04-25T21:44:56.113Z,10.53
2019-04-25T21:47:25.178Z,9.63
2019-04-25T21:49:54.518Z,10.37
2019-04-25T21:52:23.834Z,10.27
2019-04-25T21:54:53.137Z,10.60
2019-04-25T21:57:22.414Z,9.77
2019-04-25T22:00:00.207Z,11.90
2019-04-25T22:02:22.579Z,11.13
2019-04-25T22:04:51.730Z,10.73
2019-04-25T22:07:20.904Z,10.93
2019-04-25T22:09:50.107Z,11.87
2019-04-25T22:12:19.430Z,10.43
2019-04-25T22:14:48.395Z,9.90
2019-04-25T22:17:17.400Z,9.87
2019-04-25T22:19:46.553Z,9.07
2019-04-25T22:22:15.663Z,9.80
2019-04-25T22:24:44.654Z,8.97
2019-04-25T22:27:19.901Z,8.27
2019-04-25T22:29:53.210Z,7.70
2019-04-25T22:32:38.231Z,7.80
2019-04-25T22:35:13.301Z,7.47
2019-04-25T22:37:42.204Z,7.13
2019-04-25T22:40:11.633Z,8.37
2019-04-25T22:42:40.578Z,7.03
2019-04-25T22:45:09.603Z,8.47
2019-04-25T22:47:38.500Z,7.80
2019-04-25T22:50:07.441Z,8.70
2019-04-25T22:52:36.807Z,8.13
2019-04-25T22:55:06.278Z,9.93
2019-04-25T22:57:35.503Z,10.67
2019-04-25T23:00:05.198Z,9.00
2019-04-25T23:02:40.005Z,9.23
2019-04-25T23:05:16.510Z,8.13
2019-04-25T23:07:45.663Z,7.50
2019-04-25T23:10:14.998Z,7.70
2019-04-25T23:12:44.040Z,10.37
2019-04-25T23:15:13.148Z,10.13
2019-04-25T23:17:42.054Z,6.87
2019-04-25T23:20:11.774Z,6.10
2019-04-25T23:22:40.834Z,8.67
2019-04-25T23:25:11.986Z,7.03
2019-04-25T23:28:06.423Z,7.37
2019-04-25T23:30:53.410Z,7.33
2019-04-25T23:33:22.416Z,7.03
2019-04-25T23:35:51.719Z,7.33
2019-04-25T23:38:20.670Z,6.87
2019-04-25T23:40:49.679Z,7.47
2019-04-25T23:43:18.954Z,8.97
2019-04-25T23:45:47.936Z,7.47
2019-04-25T23:48:16.996Z,8.67
2019-04-25T23:50:46.008Z,9.43
2019-04-25T23:53:15.061Z,8.90
2019-04-25T23:55:43.974Z,9.57
2019-04-25T23:58:13.477Z,9.13
